sensor_id;sensor_type;location;lat;lon;timestamp;temperature;humidity
50570;DHT22;36525;49.398;7.614;2024-02-14T00:00:51;6.20;99.90
50570;DHT22;36525;49.398;7.614;2024-02-14T00:03:18;6.20;99.90
50570;DHT22;36525;49.398;7.614;2024-02-14T00:05:47;6.20;99.90
50570;DHT22;36525;49.398;7.614;2024-02-14T00:08:14;6.20;99.90
50570;DHT22;36525;49.398;7.614;2024-02-14T00:10:41;6.30;99.90
50570;DHT22;36525;49.398;7.614;2024-02-14T00:13:10;6.20;99.90
50570;DHT22;36525;49.398;7.614;2024-02-14T00:15:37;6.20;99.90
50570;DHT22;36525;49.398;7.614;2024-02-14T00:18:04;6.20;99.90
50570;DHT22;36525;49.398;7.614;2024-02-14T00:20:31;6.20;99.90
50570;DHT22;36525;49.398;7.614;2024-02-14T00:22:59;6.30;99.90
50570;DHT22;36525;49.398;7.614;2024-02-14T00:25:26;6.20;99.90
50570;DHT22;36525;49.398;7.614;2024-02-14T00:27:53;6.20;99.90
50570;DHT22;36525;49.398;7.614;2024-02-14T00:30:20;6.20;99.90
50570;DHT22;36525;49.398;7.614;2024-02-14T00:32:50;6.20;99.90
50570;DHT22;36525;49.398;7.614;2024-02-14T00:35:17;6.10;99.90
50570;DHT22;36525;49.398;7.614;2024-02-14T00:37:44;6.10;99.90
50570;DHT22;36525;49.398;7.614;2024-02-14T00:40:11;6.00;99.90
50570;DHT22;36525;49.398;7.614;2024-02-14T00:42:38;6.00;99.90
50570;DHT22;36525;49.398;7.614;2024-02-14T00:45:06;6.00;99.90
50570;DHT22;36525;49.398;7.614;2024-02-14T00:47:35;5.90;99.90
50570;DHT22;36525;49.398;7.614;2024-02-14T00:50:03;5.90;99.90
50570;DHT22;36525;49.398;7.614;2024-02-14T00:52:30;5.90;99.90
50570;DHT22;36525;49.398;7.614;2024-02-14T00:54:57;5.90;99.90
50570;DHT22;36525;49.398;7.614;2024-02-14T00:57:24;5.80;99.90
50570;DHT22;36525;49.398;7.614;2024-02-14T00:59:52;5.80;99.90
50570;DHT22;36525;49.398;7.614;2024-02-14T01:02:19;5.80;99.90
50570;DHT22;36525;49.398;7.614;2024-02-14T01:04:46;5.90;99.90
50570;DHT22;36525;49.398;7.614;2024-02-14T01:07:13;5.90;99.90
50570;DHT22;36525;49.398;7.614;2024-02-14T01:09:40;5.90;99.90
50570;DHT22;36525;49.398;7.614;2024-02-14T01:12:07;5.90;99.90
50570;DHT22;36525;49.398;7.614;2024-02-14T01:14:34;5.90;99.90
50570;DHT22;36525;49.398;7.614;2024-02-14T01:17:01;5.90;99.90
50570;DHT22;36525;49.398;7.614;2024-02-14T01:19:28;6.00;99.90
50570;DHT22;36525;49.398;7.614;2024-02-14T01:21:55;6.00;99.90
50570;DHT22;36525;49.398;7.614;2024-02-14T01:24:25;6.00;99.90
50570;DHT22;36525;49.398;7.614;2024-02-14T01:26:56;6.00;99.90
50570;DHT22;36525;49.398;7.614;2024-02-14T01:29:23;6.00;99.90
50570;DHT22;36525;49.398;7.614;2024-02-14T01:31:50;6.10;99.90
50570;DHT22;36525;49.398;7.614;2024-02-14T01:34:17;6.10;99.90
50570;DHT22;36525;49.398;7.614;2024-02-14T01:36:45;6.10;99.90
50570;DHT22;36525;49.398;7.614;2024-02-14T01:39:12;6.20;99.90
50570;DHT22;36525;49.398;7.614;2024-02-14T01:41:48;6.20;99.90
50570;DHT22;36525;49.398;7.614;2024-02-14T01:44:15;6.20;99.90
50570;DHT22;36525;49.398;7.614;2024-02-14T01:46:43;6.20;99.90
50570;DHT22;36525;49.398;7.614;2024-02-14T01:49:11;6.20;99.90
50570;DHT22;36525;49.398;7.614;2024-02-14T01:51:42;6.20;99.90
50570;DHT22;36525;49.398;7.614;2024-02-14T01:54:11;6.10;99.90
50570;DHT22;36525;49.398;7.614;2024-02-14T01:56:39;6.10;99.90
50570;DHT22;36525;49.398;7.614;2024-02-14T01:59:06;6.10;99.90
50570;DHT22;36525;49.398;7.614;2024-02-14T02:01:33;6.10;99.90
50570;DHT22;36525;49.398;7.614;2024-02-14T02:04:00;6.10;99.90
50570;DHT22;36525;49.398;7.614;2024-02-14T02:06:27;6.10;99.90
50570;DHT22;36525;49.398;7.614;2024-02-14T02:08:55;6.20;99.90
50570;DHT22;36525;49.398;7.614;2024-02-14T02:11:23;6.20;99.90
50570;DHT22;36525;49.398;7.614;2024-02-14T02:13:52;6.20;99.90
50570;DHT22;36525;49.398;7.614;2024-02-14T02:16:19;6.30;99.90
50570;DHT22;36525;49.398;7.614;2024-02-14T02:18:46;6.30;99.90
50570;DHT22;36525;49.398;7.614;2024-02-14T02:21:13;6.30;99.90
50570;DHT22;36525;49.398;7.614;2024-02-14T02:23:40;6.30;99.90
50570;DHT22;36525;49.398;7.614;2024-02-14T02:26:11;6.40;99.90
50570;DHT22;36525;49.398;7.614;2024-02-14T02:28:38;6.40;99.90
50570;DHT22;36525;49.398;7.614;2024-02-14T02:31:06;6.40;99.90
50570;DHT22;36525;49.398;7.614;2024-02-14T02:33:33;6.40;99.90
50570;DHT22;36525;49.398;7.614;2024-02-14T02:36:00;6.50;99.90
50570;DHT22;36525;49.398;7.614;2024-02-14T02:38:27;6.50;99.90
50570;DHT22;36525;49.398;7.614;2024-02-14T02:40:55;6.50;99.90
50570;DHT22;36525;49.398;7.614;2024-02-14T02:43:21;6.50;99.90
50570;DHT22;36525;49.398;7.614;2024-02-14T02:45:48;6.50;99.90
50570;DHT22;36525;49.398;7.614;2024-02-14T02:48:15;6.50;99.90
50570;DHT22;36525;49.398;7.614;2024-02-14T02:50:42;6.60;99.90
50570;DHT22;36525;49.398;7.614;2024-02-14T02:53:11;6.60;99.90
50570;DHT22;36525;49.398;7.614;2024-02-14T02:55:38;6.60;99.90
50570;DHT22;36525;49.398;7.614;2024-02-14T02:58:12;6.60;99.90
50570;DHT22;36525;49.398;7.614;2024-02-14T03:00:40;6.60;99.90
50570;DHT22;36525;49.398;7.614;2024-02-14T03:03:07;6.60;99.90
50570;DHT22;36525;49.398;7.614;2024-02-14T03:05:35;6.70;99.90
50570;DHT22;36525;49.398;7.614;2024-02-14T03:08:02;6.70;99.90
50570;DHT22;36525;49.398;7.614;2024-02-14T03:10:29;6.70;99.90
50570;DHT22;36525;49.398;7.614;2024-02-14T03:12:57;6.70;99.90
50570;DHT22;36525;49.398;7.614;2024-02-14T03:15:24;6.70;99.90
50570;DHT22;36525;49.398;7.614;2024-02-14T03:17:52;6.70;99.90
50570;DHT22;36525;49.398;7.614;2024-02-14T03:20:19;6.70;99.90
50570;DHT22;36525;49.398;7.614;2024-02-14T03:22:46;6.70;99.90
50570;DHT22;36525;49.398;7.614;2024-02-14T03:25:18;6.70;99.90
50570;DHT22;36525;49.398;7.614;2024-02-14T03:27:46;6.60;99.90
50570;DHT22;36525;49.398;7.614;2024-02-14T03:30:20;6.60;99.90
50570;DHT22;36525;49.398;7.614;2024-02-14T03:32:47;6.60;99.90
50570;DHT22;36525;49.398;7.614;2024-02-14T03:35:14;6.70;99.90
50570;DHT22;36525;49.398;7.614;2024-02-14T03:37:42;6.60;99.90
50570;DHT22;36525;49.398;7.614;2024-02-14T03:40:10;6.80;99.90
50570;DHT22;36525;49.398;7.614;2024-02-14T03:42:38;6.80;99.90
50570;DHT22;36525;49.398;7.614;2024-02-14T03:45:08;6.70;99.90
50570;DHT22;36525;49.398;7.614;2024-02-14T03:47:36;6.70;99.90
50570;DHT22;36525;49.398;7.614;2024-02-14T03:50:09;6.70;99.90
50570;DHT22;36525;49.398;7.614;2024-02-14T03:52:36;6.60;99.90
50570;DHT22;36525;49.398;7.614;2024-02-14T03:55:03;6.60;99.90
50570;DHT22;36525;49.398;7.614;2024-02-14T03:57:32;6.60;99.90
50570;DHT22;36525;49.398;7.614;2024-02-14T04:00:02;6.60;99.90
50570;DHT22;36525;49.398;7.614;2024-02-14T04:02:29;6.60;99.90
50570;DHT22;36525;49.398;7.614;2024-02-14T04:04:58;6.60;99.90
50570;DHT22;36525;49.398;7.614;2024-02-14T04:07:26;6.70;99.90
50570;DHT22;36525;49.398;7.614;2024-02-14T04:09:53;6.70;99.90
50570;DHT22;36525;49.398;7.614;2024-02-14T04:12:20;6.80;99.90
50570;DHT22;36525;49.398;7.614;2024-02-14T04:14:47;6.70;99.90
50570;DHT22;36525;49.398;7.614;2024-02-14T04:17:14;6.70;99.90
50570;DHT22;36525;49.398;7.614;2024-02-14T04:19:41;6.60;99.90
50570;DHT22;36525;49.398;7.614;2024-02-14T04:22:08;6.50;99.90
50570;DHT22;36525;49.398;7.614;2024-02-14T04:24:35;6.50;99.90
50570;DHT22;36525;49.398;7.614;2024-02-14T04:27:02;6.40;99.90
50570;DHT22;36525;49.398;7.614;2024-02-14T04:29:30;6.40;99.90
50570;DHT22;36525;49.398;7.614;2024-02-14T04:32:00;6.30;99.90
50570;DHT22;36525;49.398;7.614;2024-02-14T04:34:27;6.30;99.90
50570;DHT22;36525;49.398;7.614;2024-02-14T04:36:54;6.40;99.90
50570;DHT22;36525;49.398;7.614;2024-02-14T04:39:21;6.30;99.90
50570;DHT22;36525;49.398;7.614;2024-02-14T04:41:48;6.40;99.90
50570;DHT22;36525;49.398;7.614;2024-02-14T04:44:27;6.40;99.90
50570;DHT22;36525;49.398;7.614;2024-02-14T04:46:55;6.40;99.90
50570;DHT22;36525;49.398;7.614;2024-02-14T04:49:23;6.40;99.90
50570;DHT22;36525;49.398;7.614;2024-02-14T04:51:53;6.40;99.90
50570;DHT22;36525;49.398;7.614;2024-02-14T04:54:20;6.40;99.90
50570;DHT22;36525;49.398;7.614;2024-02-14T04:56:47;6.40;99.90
50570;DHT22;36525;49.398;7.614;2024-02-14T04:59:20;6.30;99.90
50570;DHT22;36525;49.398;7.614;2024-02-14T05:01:47;6.30;99.90
50570;DHT22;36525;49.398;7.614;2024-02-14T05:04:14;6.30;99.90
50570;DHT22;36525;49.398;7.614;2024-02-14T05:06:43;6.30;99.90
50570;DHT22;36525;49.398;7.614;2024-02-14T05:09:10;6.30;99.90
50570;DHT22;36525;49.398;7.614;2024-02-14T05:11:37;6.30;99.90
50570;DHT22;36525;49.398;7.614;2024-02-14T05:14:04;6.40;99.90
50570;DHT22;36525;49.398;7.614;2024-02-14T05:16:31;6.40;99.90
50570;DHT22;36525;49.398;7.614;2024-02-14T05:18:58;6.40;99.90
50570;DHT22;36525;49.398;7.614;2024-02-14T05:21:25;6.40;99.90
50570;DHT22;36525;49.398;7.614;2024-02-14T05:23:53;6.40;99.90
50570;DHT22;36525;49.398;7.614;2024-02-14T05:26:20;6.30;99.90
50570;DHT22;36525;49.398;7.614;2024-02-14T05:28:47;6.20;99.90
50570;DHT22;36525;49.398;7.614;2024-02-14T05:31:14;6.20;99.90
50570;DHT22;36525;49.398;7.614;2024-02-14T05:33:41;6.20;99.90
50570;DHT22;36525;49.398;7.614;2024-02-14T05:36:10;6.20;99.90
50570;DHT22;36525;49.398;7.614;2024-02-14T05:38:37;6.10;99.90
50570;DHT22;36525;49.398;7.614;2024-02-14T05:41:04;6.10;99.90
50570;DHT22;36525;49.398;7.614;2024-02-14T05:43:31;6.20;99.90
50570;DHT22;36525;49.398;7.614;2024-02-14T05:45:58;6.20;99.90
50570;DHT22;36525;49.398;7.614;2024-02-14T05:48:24;6.20;99.90
50570;DHT22;36525;49.398;7.614;2024-02-14T05:50:52;6.20;99.90
50570;DHT22;36525;49.398;7.614;2024-02-14T05:53:19;6.10;99.90
50570;DHT22;36525;49.398;7.614;2024-02-14T05:55:46;6.20;99.90
50570;DHT22;36525;49.398;7.614;2024-02-14T05:58:13;6.20;99.90
50570;DHT22;36525;49.398;7.614;2024-02-14T06:00:40;6.20;99.90
50570;DHT22;36525;49.398;7.614;2024-02-14T06:03:07;6.20;99.90
50570;DHT22;36525;49.398;7.614;2024-02-14T06:05:35;6.20;99.90
50570;DHT22;36525;49.398;7.614;2024-02-14T06:08:02;6.20;99.90
50570;DHT22;36525;49.398;7.614;2024-02-14T06:10:29;6.20;99.90
50570;DHT22;36525;49.398;7.614;2024-02-14T06:12:56;6.20;99.90
50570;DHT22;36525;49.398;7.614;2024-02-14T06:15:23;6.20;99.90
50570;DHT22;36525;49.398;7.614;2024-02-14T06:17:50;6.20;99.90
50570;DHT22;36525;49.398;7.614;2024-02-14T06:20:17;6.30;99.90
50570;DHT22;36525;49.398;7.614;2024-02-14T06:22:45;6.20;99.90
50570;DHT22;36525;49.398;7.614;2024-02-14T06:25:22;6.30;99.90
50570;DHT22;36525;49.398;7.614;2024-02-14T06:27:49;6.20;99.90
50570;DHT22;36525;49.398;7.614;2024-02-14T06:30:16;6.30;99.90
50570;DHT22;36525;49.398;7.614;2024-02-14T06:32:44;6.30;99.90
50570;DHT22;36525;49.398;7.614;2024-02-14T06:35:12;6.30;99.90
50570;DHT22;36525;49.398;7.614;2024-02-14T06:37:42;6.30;99.90
50570;DHT22;36525;49.398;7.614;2024-02-14T06:40:21;6.30;99.90
50570;DHT22;36525;49.398;7.614;2024-02-14T06:42:48;6.30;99.90
50570;DHT22;36525;49.398;7.614;2024-02-14T06:45:18;6.30;99.90
50570;DHT22;36525;49.398;7.614;2024-02-14T06:47:45;6.30;99.90
50570;DHT22;36525;49.398;7.614;2024-02-14T06:50:12;6.30;99.90
50570;DHT22;36525;49.398;7.614;2024-02-14T06:52:39;6.30;99.90
50570;DHT22;36525;49.398;7.614;2024-02-14T06:55:06;6.30;99.90
50570;DHT22;36525;49.398;7.614;2024-02-14T06:57:33;6.30;99.90
50570;DHT22;36525;49.398;7.614;2024-02-14T07:00:00;6.30;99.90
50570;DHT22;36525;49.398;7.614;2024-02-14T07:02:27;6.40;99.90
50570;DHT22;36525;49.398;7.614;2024-02-14T07:04:55;6.40;99.90
50570;DHT22;36525;49.398;7.614;2024-02-14T07:07:21;6.40;99.90
50570;DHT22;36525;49.398;7.614;2024-02-14T07:09:48;6.40;99.90
50570;DHT22;36525;49.398;7.614;2024-02-14T07:12:15;6.50;99.90
50570;DHT22;36525;49.398;7.614;2024-02-14T07:14:42;6.50;99.90
50570;DHT22;36525;49.398;7.614;2024-02-14T07:17:09;6.50;99.90
50570;DHT22;36525;49.398;7.614;2024-02-14T07:19:36;6.50;99.90
50570;DHT22;36525;49.398;7.614;2024-02-14T07:22:05;6.40;99.90
50570;DHT22;36525;49.398;7.614;2024-02-14T07:24:32;6.40;99.90
50570;DHT22;36525;49.398;7.614;2024-02-14T07:26:58;6.40;99.90
50570;DHT22;36525;49.398;7.614;2024-02-14T07:29:25;6.50;99.90
50570;DHT22;36525;49.398;7.614;2024-02-14T07:31:52;6.50;99.90
50570;DHT22;36525;49.398;7.614;2024-02-14T07:34:19;6.50;99.90
50570;DHT22;36525;49.398;7.614;2024-02-14T07:36:46;6.50;99.90
50570;DHT22;36525;49.398;7.614;2024-02-14T07:39:13;6.60;99.90
50570;DHT22;36525;49.398;7.614;2024-02-14T07:41:40;6.50;99.90
50570;DHT22;36525;49.398;7.614;2024-02-14T07:44:07;6.50;99.90
50570;DHT22;36525;49.398;7.614;2024-02-14T07:46:34;6.60;99.90
50570;DHT22;36525;49.398;7.614;2024-02-14T07:49:01;6.50;99.90
50570;DHT22;36525;49.398;7.614;2024-02-14T07:51:28;6.60;99.90
50570;DHT22;36525;49.398;7.614;2024-02-14T07:53:56;6.60;99.90
50570;DHT22;36525;49.398;7.614;2024-02-14T07:56:22;6.60;99.90
50570;DHT22;36525;49.398;7.614;2024-02-14T07:58:49;6.60;99.90
50570;DHT22;36525;49.398;7.614;2024-02-14T08:01:16;6.60;99.90
50570;DHT22;36525;49.398;7.614;2024-02-14T08:03:43;6.70;99.90
50570;DHT22;36525;49.398;7.614;2024-02-14T08:06:13;6.70;99.90
50570;DHT22;36525;49.398;7.614;2024-02-14T08:08:40;6.70;99.90
50570;DHT22;36525;49.398;7.614;2024-02-14T08:11:07;6.80;99.90
50570;DHT22;36525;49.398;7.614;2024-02-14T08:13:34;6.80;99.90
50570;DHT22;36525;49.398;7.614;2024-02-14T08:16:01;6.80;99.90
50570;DHT22;36525;49.398;7.614;2024-02-14T08:18:28;6.80;99.90
50570;DHT22;36525;49.398;7.614;2024-02-14T08:20:55;6.80;99.90
50570;DHT22;36525;49.398;7.614;2024-02-14T08:23:22;6.80;99.90
50570;DHT22;36525;49.398;7.614;2024-02-14T08:25:49;6.80;99.90
50570;DHT22;36525;49.398;7.614;2024-02-14T08:28:16;6.80;99.90
50570;DHT22;36525;49.398;7.614;2024-02-14T08:30:44;6.80;99.90
50570;DHT22;36525;49.398;7.614;2024-02-14T08:33:11;6.80;99.90
50570;DHT22;36525;49.398;7.614;2024-02-14T08:35:38;6.90;99.90
50570;DHT22;36525;49.398;7.614;2024-02-14T08:38:09;6.90;99.90
50570;DHT22;36525;49.398;7.614;2024-02-14T08:40:36;7.00;99.90
50570;DHT22;36525;49.398;7.614;2024-02-14T08:43:03;6.90;99.90
50570;DHT22;36525;49.398;7.614;2024-02-14T08:45:31;7.00;99.90
50570;DHT22;36525;49.398;7.614;2024-02-14T08:47:58;7.00;99.90
50570;DHT22;36525;49.398;7.614;2024-02-14T08:50:26;7.00;99.90
50570;DHT22;36525;49.398;7.614;2024-02-14T08:52:52;7.00;99.90
50570;DHT22;36525;49.398;7.614;2024-02-14T08:55:19;7.00;99.90
50570;DHT22;36525;49.398;7.614;2024-02-14T08:57:46;7.00;99.90
50570;DHT22;36525;49.398;7.614;2024-02-14T09:00:15;7.10;99.90
50570;DHT22;36525;49.398;7.614;2024-02-14T09:02:46;7.10;99.90
50570;DHT22;36525;49.398;7.614;2024-02-14T09:05:14;7.10;99.90
50570;DHT22;36525;49.398;7.614;2024-02-14T09:07:41;7.10;99.90
50570;DHT22;36525;49.398;7.614;2024-02-14T09:10:08;7.10;99.90
50570;DHT22;36525;49.398;7.614;2024-02-14T09:12:37;7.20;99.90
50570;DHT22;36525;49.398;7.614;2024-02-14T09:15:04;7.20;99.90
50570;DHT22;36525;49.398;7.614;2024-02-14T09:17:32;7.20;99.90
50570;DHT22;36525;49.398;7.614;2024-02-14T09:19:59;7.30;99.90
50570;DHT22;36525;49.398;7.614;2024-02-14T09:22:26;7.40;99.90
50570;DHT22;36525;49.398;7.614;2024-02-14T09:24:53;7.40;99.90
50570;DHT22;36525;49.398;7.614;2024-02-14T09:27:20;7.40;99.90
50570;DHT22;36525;49.398;7.614;2024-02-14T09:29:47;7.40;99.90
50570;DHT22;36525;49.398;7.614;2024-02-14T09:32:14;7.40;99.90
50570;DHT22;36525;49.398;7.614;2024-02-14T09:34:41;7.50;99.90
50570;DHT22;36525;49.398;7.614;2024-02-14T09:37:08;7.50;99.90
50570;DHT22;36525;49.398;7.614;2024-02-14T09:39:35;7.40;99.90
50570;DHT22;36525;49.398;7.614;2024-02-14T09:42:06;7.50;99.90
50570;DHT22;36525;49.398;7.614;2024-02-14T09:44:36;7.50;99.90
50570;DHT22;36525;49.398;7.614;2024-02-14T09:47:07;7.60;99.90
50570;DHT22;36525;49.398;7.614;2024-02-14T09:49:35;7.50;99.90
50570;DHT22;36525;49.398;7.614;2024-02-14T09:52:06;7.60;99.90
50570;DHT22;36525;49.398;7.614;2024-02-14T09:54:35;7.60;99.90
50570;DHT22;36525;49.398;7.614;2024-02-14T09:57:06;7.50;99.90
50570;DHT22;36525;49.398;7.614;2024-02-14T09:59:33;7.60;99.90
50570;DHT22;36525;49.398;7.614;2024-02-14T10:02:00;7.50;99.90
50570;DHT22;36525;49.398;7.614;2024-02-14T10:04:27;7.60;99.90
50570;DHT22;36525;49.398;7.614;2024-02-14T10:06:54;7.60;99.90
50570;DHT22;36525;49.398;7.614;2024-02-14T10:09:22;7.70;99.90
50570;DHT22;36525;49.398;7.614;2024-02-14T10:11:49;7.80;99.90
50570;DHT22;36525;49.398;7.614;2024-02-14T10:14:16;7.70;99.90
50570;DHT22;36525;49.398;7.614;2024-02-14T10:16:43;7.70;99.90
50570;DHT22;36525;49.398;7.614;2024-02-14T10:19:16;7.80;99.90
50570;DHT22;36525;49.398;7.614;2024-02-14T10:21:44;7.80;99.90
50570;DHT22;36525;49.398;7.614;2024-02-14T10:24:24;7.80;99.90
50570;DHT22;36525;49.398;7.614;2024-02-14T10:26:54;7.90;99.90
50570;DHT22;36525;49.398;7.614;2024-02-14T10:29:25;7.90;99.90
50570;DHT22;36525;49.398;7.614;2024-02-14T10:31:52;7.90;99.90
50570;DHT22;36525;49.398;7.614;2024-02-14T10:34:19;8.00;99.90
50570;DHT22;36525;49.398;7.614;2024-02-14T10:39:24;8.00;99.90
50570;DHT22;36525;49.398;7.614;2024-02-14T10:41:52;8.00;99.90
50570;DHT22;36525;49.398;7.614;2024-02-14T10:44:19;8.00;99.90
50570;DHT22;36525;49.398;7.614;2024-02-14T10:46:46;8.10;99.90
50570;DHT22;36525;49.398;7.614;2024-02-14T10:49:15;8.00;99.90
50570;DHT22;36525;49.398;7.614;2024-02-14T10:51:43;8.10;99.90
50570;DHT22;36525;49.398;7.614;2024-02-14T10:54:14;8.10;99.90
50570;DHT22;36525;49.398;7.614;2024-02-14T10:56:48;8.00;99.90
50570;DHT22;36525;49.398;7.614;2024-02-14T10:59:17;8.10;99.90
50570;DHT22;36525;49.398;7.614;2024-02-14T11:01:46;8.10;99.90
50570;DHT22;36525;49.398;7.614;2024-02-14T11:04:13;8.20;99.90
50570;DHT22;36525;49.398;7.614;2024-02-14T11:06:47;8.20;99.90
50570;DHT22;36525;49.398;7.614;2024-02-14T11:09:15;8.20;99.90
50570;DHT22;36525;49.398;7.614;2024-02-14T11:11:42;8.30;99.90
50570;DHT22;36525;49.398;7.614;2024-02-14T11:14:19;8.30;99.90
50570;DHT22;36525;49.398;7.614;2024-02-14T11:16:46;8.40;99.90
50570;DHT22;36525;49.398;7.614;2024-02-14T11:19:14;8.40;99.90
50570;DHT22;36525;49.398;7.614;2024-02-14T11:21:47;8.40;99.90
50570;DHT22;36525;49.398;7.614;2024-02-14T11:24:15;8.40;99.90
50570;DHT22;36525;49.398;7.614;2024-02-14T11:26:49;8.30;99.90
50570;DHT22;36525;49.398;7.614;2024-02-14T11:29:20;8.30;99.90
50570;DHT22;36525;49.398;7.614;2024-02-14T11:34:29;8.60;99.90
50570;DHT22;36525;49.398;7.614;2024-02-14T11:37:03;8.50;99.90
50570;DHT22;36525;49.398;7.614;2024-02-14T11:39:33;8.50;99.90
50570;DHT22;36525;49.398;7.614;2024-02-14T11:42:00;8.60;99.90
50570;DHT22;36525;49.398;7.614;2024-02-14T11:44:27;8.60;99.90
50570;DHT22;36525;49.398;7.614;2024-02-14T11:46:54;8.70;99.90
50570;DHT22;36525;49.398;7.614;2024-02-14T11:49:21;8.70;99.90
50570;DHT22;36525;49.398;7.614;2024-02-14T11:51:48;8.80;99.90
50570;DHT22;36525;49.398;7.614;2024-02-14T11:54:15;8.70;99.90
50570;DHT22;36525;49.398;7.614;2024-02-14T11:56:42;8.90;99.90
50570;DHT22;36525;49.398;7.614;2024-02-14T11:59:09;8.90;99.90
50570;DHT22;36525;49.398;7.614;2024-02-14T12:01:38;8.90;99.90
50570;DHT22;36525;49.398;7.614;2024-02-14T12:04:06;9.00;99.90
50570;DHT22;36525;49.398;7.614;2024-02-14T12:06:39;9.00;99.90
50570;DHT22;36525;49.398;7.614;2024-02-14T12:09:08;9.00;99.90
50570;DHT22;36525;49.398;7.614;2024-02-14T12:11:36;9.10;99.90
50570;DHT22;36525;49.398;7.614;2024-02-14T12:14:09;9.10;99.90
50570;DHT22;36525;49.398;7.614;2024-02-14T12:16:36;9.10;99.90
50570;DHT22;36525;49.398;7.614;2024-02-14T12:19:07;9.10;99.90
50570;DHT22;36525;49.398;7.614;2024-02-14T12:21:43;9.20;99.90
50570;DHT22;36525;49.398;7.614;2024-02-14T12:24:11;9.20;99.90
50570;DHT22;36525;49.398;7.614;2024-02-14T12:26:40;9.20;99.90
50570;DHT22;36525;49.398;7.614;2024-02-14T12:29:10;9.20;99.90
50570;DHT22;36525;49.398;7.614;2024-02-14T12:31:38;9.10;99.90
50570;DHT22;36525;49.398;7.614;2024-02-14T12:34:05;9.10;99.90
50570;DHT22;36525;49.398;7.614;2024-02-14T12:36:33;9.10;99.90
50570;DHT22;36525;49.398;7.614;2024-02-14T12:39:00;9.20;99.90
50570;DHT22;36525;49.398;7.614;2024-02-14T12:41:30;9.20;99.90
50570;DHT22;36525;49.398;7.614;2024-02-14T12:43:58;9.20;99.90
50570;DHT22;36525;49.398;7.614;2024-02-14T12:46:26;9.20;99.90
50570;DHT22;36525;49.398;7.614;2024-02-14T12:48:54;9.20;99.90
50570;DHT22;36525;49.398;7.614;2024-02-14T12:51:21;9.20;99.90
50570;DHT22;36525;49.398;7.614;2024-02-14T12:53:48;9.30;99.90
50570;DHT22;36525;49.398;7.614;2024-02-14T12:56:15;9.30;99.90
50570;DHT22;36525;49.398;7.614;2024-02-14T12:58:42;9.40;99.90
50570;DHT22;36525;49.398;7.614;2024-02-14T13:01:09;9.40;99.90
50570;DHT22;36525;49.398;7.614;2024-02-14T13:03:38;9.30;99.90
50570;DHT22;36525;49.398;7.614;2024-02-14T13:06:05;9.30;99.90
50570;DHT22;36525;49.398;7.614;2024-02-14T13:08:32;9.30;99.90
50570;DHT22;36525;49.398;7.614;2024-02-14T13:10:59;9.30;99.90
50570;DHT22;36525;49.398;7.614;2024-02-14T13:13:26;9.30;99.90
50570;DHT22;36525;49.398;7.614;2024-02-14T13:15:53;9.30;99.90
50570;DHT22;36525;49.398;7.614;2024-02-14T13:18:19;9.30;99.90
50570;DHT22;36525;49.398;7.614;2024-02-14T13:20:47;9.30;99.90
50570;DHT22;36525;49.398;7.614;2024-02-14T13:23:14;9.30;99.90
50570;DHT22;36525;49.398;7.614;2024-02-14T13:25:41;9.30;99.90
50570;DHT22;36525;49.398;7.614;2024-02-14T13:28:08;9.30;99.90
50570;DHT22;36525;49.398;7.614;2024-02-14T13:30:35;9.30;99.90
50570;DHT22;36525;49.398;7.614;2024-02-14T13:33:04;9.30;99.90
50570;DHT22;36525;49.398;7.614;2024-02-14T13:35:31;9.30;99.90
50570;DHT22;36525;49.398;7.614;2024-02-14T13:38:07;9.20;99.90
50570;DHT22;36525;49.398;7.614;2024-02-14T13:40:36;9.20;99.90
50570;DHT22;36525;49.398;7.614;2024-02-14T13:43:03;9.30;99.90
50570;DHT22;36525;49.398;7.614;2024-02-14T13:45:43;9.30;99.90
50570;DHT22;36525;49.398;7.614;2024-02-14T13:48:11;9.30;99.90
50570;DHT22;36525;49.398;7.614;2024-02-14T13:50:39;9.40;99.90
50570;DHT22;36525;49.398;7.614;2024-02-14T13:53:06;9.30;99.90
50570;DHT22;36525;49.398;7.614;2024-02-14T13:55:33;9.30;99.90
50570;DHT22;36525;49.398;7.614;2024-02-14T13:58:00;9.40;99.90
50570;DHT22;36525;49.398;7.614;2024-02-14T14:00:27;9.40;99.90
50570;DHT22;36525;49.398;7.614;2024-02-14T14:02:54;9.50;99.90
50570;DHT22;36525;49.398;7.614;2024-02-14T14:05:22;9.50;99.90
50570;DHT22;36525;49.398;7.614;2024-02-14T14:07:49;9.50;99.90
50570;DHT22;36525;49.398;7.614;2024-02-14T14:10:25;9.50;99.90
50570;DHT22;36525;49.398;7.614;2024-02-14T14:12:54;9.60;99.90
50570;DHT22;36525;49.398;7.614;2024-02-14T14:15:22;9.50;99.90
50570;DHT22;36525;49.398;7.614;2024-02-14T14:17:50;9.60;99.90
50570;DHT22;36525;49.398;7.614;2024-02-14T14:20:18;9.50;99.90
50570;DHT22;36525;49.398;7.614;2024-02-14T14:23:02;9.50;99.90
50570;DHT22;36525;49.398;7.614;2024-02-14T14:25:30;9.60;99.90
50570;DHT22;36525;49.398;7.614;2024-02-14T14:27:58;9.60;99.90
50570;DHT22;36525;49.398;7.614;2024-02-14T14:30:28;9.60;99.90
50570;DHT22;36525;49.398;7.614;2024-02-14T14:32:55;9.70;99.90
50570;DHT22;36525;49.398;7.614;2024-02-14T14:35:25;9.60;99.90
50570;DHT22;36525;49.398;7.614;2024-02-14T14:37:52;9.60;99.90
50570;DHT22;36525;49.398;7.614;2024-02-14T14:40:20;9.60;99.90
50570;DHT22;36525;49.398;7.614;2024-02-14T14:42:47;9.60;99.90
50570;DHT22;36525;49.398;7.614;2024-02-14T14:45:14;9.60;99.90
50570;DHT22;36525;49.398;7.614;2024-02-14T14:47:42;9.60;99.90
50570;DHT22;36525;49.398;7.614;2024-02-14T14:50:08;9.60;99.90
50570;DHT22;36525;49.398;7.614;2024-02-14T14:52:35;9.60;99.90
50570;DHT22;36525;49.398;7.614;2024-02-14T14:55:05;9.60;99.90
50570;DHT22;36525;49.398;7.614;2024-02-14T14:57:32;9.70;99.90
50570;DHT22;36525;49.398;7.614;2024-02-14T14:59:59;9.70;99.90
50570;DHT22;36525;49.398;7.614;2024-02-14T15:02:26;9.70;99.90
50570;DHT22;36525;49.398;7.614;2024-02-14T15:04:52;9.60;99.90
50570;DHT22;36525;49.398;7.614;2024-02-14T15:07:19;9.70;99.90
50570;DHT22;36525;49.398;7.614;2024-02-14T15:09:47;9.70;99.90
50570;DHT22;36525;49.398;7.614;2024-02-14T15:12:14;9.70;99.90
50570;DHT22;36525;49.398;7.614;2024-02-14T15:14:41;9.70;99.90
50570;DHT22;36525;49.398;7.614;2024-02-14T15:17:08;9.80;99.90
50570;DHT22;36525;49.398;7.614;2024-02-14T15:19:35;9.70;99.90
50570;DHT22;36525;49.398;7.614;2024-02-14T15:22:03;9.70;99.90
50570;DHT22;36525;49.398;7.614;2024-02-14T15:24:30;9.80;99.90
50570;DHT22;36525;49.398;7.614;2024-02-14T15:26:57;9.70;99.90
50570;DHT22;36525;49.398;7.614;2024-02-14T15:29:28;9.70;99.90
50570;DHT22;36525;49.398;7.614;2024-02-14T15:32:13;9.80;99.90
50570;DHT22;36525;49.398;7.614;2024-02-14T15:34:59;9.70;99.90
50570;DHT22;36525;49.398;7.614;2024-02-14T15:37:26;9.80;99.90
50570;DHT22;36525;49.398;7.614;2024-02-14T15:39:53;9.80;99.90
50570;DHT22;36525;49.398;7.614;2024-02-14T15:42:20;9.80;99.90
50570;DHT22;36525;49.398;7.614;2024-02-14T15:44:47;9.80;99.90
50570;DHT22;36525;49.398;7.614;2024-02-14T15:47:14;9.90;99.90
50570;DHT22;36525;49.398;7.614;2024-02-14T15:49:41;9.80;99.90
50570;DHT22;36525;49.398;7.614;2024-02-14T15:52:08;9.80;99.90
50570;DHT22;36525;49.398;7.614;2024-02-14T15:54:34;9.80;99.90